createdAt,value
2019-01-22T00:02:48.832Z,0
2019-01-22T00:03:41.103Z,0
2019-01-22T00:04:33.548Z,0
2019-01-22T00:05:26.239Z,0
2019-01-22T00:06:18.974Z,0
2019-01-22T00:07:11.067Z,0
2019-01-22T00:08:04.194Z,0
2019-01-22T00:08:56.098Z,0
2019-01-22T00:09:48.464Z,0
2019-01-22T00:10:40.730Z,0
2019-01-22T00:11:32.979Z,0
2019-01-22T00:12:24.914Z,0
2019-01-22T00:13:18.040Z,0
2019-01-22T00:14:10.574Z,0
2019-01-22T00:15:02.688Z,0
2019-01-22T00:15:54.643Z,0
2019-01-22T00:16:46.897Z,0
2019-01-22T00:17:39.285Z,0
2019-01-22T00:18:31.445Z,0
2019-01-22T00:19:23.514Z,0
2019-01-22T00:20:16.066Z,0
2019-01-22T00:21:08.486Z,0
2019-01-22T00:22:00.515Z,0
2019-01-22T00:22:53.589Z,0
2019-01-22T00:23:45.591Z,0
2019-01-22T00:24:37.919Z,0
2019-01-22T00:25:29.988Z,0
2019-01-22T00:26:22.052Z,0
2019-01-22T00:27:14.506Z,0
2019-01-22T00:28:06.685Z,0
2019-01-22T00:29:00.031Z,0
2019-01-22T00:29:52.986Z,0
2019-01-22T00:30:45.064Z,0
2019-01-22T00:31:37.492Z,0
2019-01-22T00:32:29.506Z,0
2019-01-22T00:33:21.977Z,0
2019-01-22T00:34:14.249Z,0
2019-01-22T00:35:07.206Z,0
2019-01-22T00:36:00.009Z,0
2019-01-22T00:36:53.037Z,0
2019-01-22T00:37:46.317Z,0
2019-01-22T00:38:38.657Z,0
2019-01-22T00:39:30.858Z,0
2019-01-22T00:40:23.077Z,0
2019-01-22T00:41:16.044Z,0
2019-01-22T00:42:08.405Z,0
2019-01-22T00:43:01.416Z,0
2019-01-22T00:43:53.628Z,0
2019-01-22T00:44:45.648Z,0
2019-01-22T00:45:37.990Z,0
2019-01-22T00:46:30.572Z,0
2019-01-22T00:47:23.154Z,0
2019-01-22T00:48:15.507Z,0
2019-01-22T00:49:07.881Z,0
2019-01-22T00:50:00.262Z,0
2019-01-22T00:50:52.481Z,0
2019-01-22T00:51:44.989Z,0
2019-01-22T00:52:38.142Z,0
2019-01-22T00:53:30.570Z,0
2019-01-22T00:54:23.101Z,0
2019-01-22T00:55:15.724Z,0
2019-01-22T00:56:07.918Z,0
2019-01-22T00:57:00.808Z,0
2019-01-22T00:57:53.039Z,0
2019-01-22T00:58:45.877Z,0
2019-01-22T00:59:38.121Z,0
2019-01-22T01:00:30.663Z,0
2019-01-22T01:01:23.157Z,0
2019-01-22T01:02:15.461Z,0
2019-01-22T01:03:07.641Z,0
2019-01-22T01:04:00.077Z,0
2019-01-22T01:04:52.575Z,0
2019-01-22T01:05:44.895Z,0
2019-01-22T01:06:37.138Z,0
2019-01-22T01:07:30.164Z,0
2019-01-22T01:08:22.310Z,0
2019-01-22T01:09:14.720Z,0
2019-01-22T01:10:08.267Z,0
2019-01-22T01:11:00.726Z,0
2019-01-22T01:11:52.914Z,0
2019-01-22T01:12:46.342Z,0
2019-01-22T01:13:38.367Z,0
2019-01-22T01:14:30.524Z,0
2019-01-22T01:15:23.365Z,0
2019-01-22T01:16:15.615Z,0
2019-01-22T01:17:08.063Z,0
2019-01-22T01:18:00.558Z,0
2019-01-22T01:18:52.980Z,0
2019-01-22T01:19:45.121Z,0
2019-01-22T01:20:37.017Z,0
2019-01-22T01:21:29.459Z,0
2019-01-22T01:22:21.483Z,0
2019-01-22T01:23:16.854Z,0
2019-01-22T01:24:05.756Z,0
2019-01-22T01:24:57.753Z,0
2019-01-22T01:25:50.096Z,0
2019-01-22T01:26:42.318Z,0
2019-01-22T01:27:34.824Z,0
2019-01-22T01:28:26.871Z,0
2019-01-22T01:29:18.718Z,0
2019-01-22T01:30:10.888Z,0
2019-01-22T01:31:03.042Z,0
2019-01-22T01:31:56.203Z,0
2019-01-22T01:32:48.320Z,0
2019-01-22T01:33:40.232Z,0
2019-01-22T01:34:32.559Z,0
2019-01-22T01:35:24.399Z,0
2019-01-22T01:36:16.490Z,0
2019-01-22T01:37:08.340Z,0
2019-01-22T01:38:00.766Z,0
2019-01-22T01:38:52.681Z,0
2019-01-22T01:39:44.456Z,0
2019-01-22T01:40:37.535Z,0
2019-01-22T01:41:30.179Z,0
2019-01-22T01:42:22.643Z,0
2019-01-22T01:43:15.001Z,0
2019-01-22T01:44:06.911Z,0
2019-01-22T01:44:58.747Z,0
2019-01-22T01:45:51.112Z,0
2019-01-22T01:46:43.390Z,0
2019-01-22T01:47:35.250Z,0
2019-01-22T01:48:27.478Z,0
2019-01-22T01:49:19.795Z,0
2019-01-22T01:50:12.036Z,0
2019-01-22T01:51:03.805Z,0
2019-01-22T01:51:55.504Z,0
2019-01-22T01:52:47.793Z,0
2019-01-22T01:53:39.844Z,0
2019-01-22T01:54:32.522Z,0
2019-01-22T01:55:25.030Z,0
2019-01-22T01:56:17.538Z,0
2019-01-22T01:57:06.874Z,0
2019-01-22T01:59:16.502Z,0
2019-01-22T02:00:09.729Z,0
2019-01-22T02:01:01.610Z,0
2019-01-22T02:01:54.429Z,0
2019-01-22T02:02:46.610Z,0
2019-01-22T02:03:39.715Z,0
2019-01-22T02:04:32.655Z,0
2019-01-22T02:05:26.044Z,0
2019-01-22T02:06:17.823Z,0
2019-01-22T02:07:11.992Z,0
2019-01-22T02:08:03.789Z,0
2019-01-22T02:08:57.511Z,0
2019-01-22T02:09:49.599Z,0
2019-01-22T02:10:42.060Z,0
2019-01-22T02:11:34.612Z,0
2019-01-22T02:12:26.829Z,0
2019-01-22T02:13:19.349Z,0
2019-01-22T02:14:11.354Z,0
2019-01-22T02:15:03.601Z,0
2019-01-22T02:15:55.530Z,0
2019-01-22T02:16:47.531Z,0
2019-01-22T02:17:39.456Z,0
2019-01-22T02:18:31.664Z,0
2019-01-22T02:19:23.844Z,0
2019-01-22T02:20:15.831Z,0
2019-01-22T02:21:09.223Z,0
2019-01-22T02:22:01.353Z,0
2019-01-22T02:22:53.509Z,0
2019-01-22T02:23:46.185Z,0
2019-01-22T02:24:38.373Z,0
2019-01-22T02:25:30.809Z,0
2019-01-22T02:26:22.974Z,0
2019-01-22T02:27:15.352Z,0
2019-01-22T02:29:50.130Z,0
2019-01-22T02:30:42.051Z,0
2019-01-22T02:31:33.899Z,0
2019-01-22T02:32:27.620Z,0
2019-01-22T02:33:18.205Z,0
2019-01-22T02:34:10.689Z,0
2019-01-22T02:35:02.527Z,0
2019-01-22T02:35:54.682Z,0
2019-01-22T02:36:46.756Z,0
2019-01-22T02:37:38.986Z,0
2019-01-22T02:38:31.144Z,0
2019-01-22T02:39:23.263Z,0
2019-01-22T02:40:15.491Z,0
2019-01-22T02:41:08.946Z,0
2019-01-22T02:42:00.145Z,0
2019-01-22T02:42:52.646Z,0
2019-01-22T02:43:44.663Z,0
2019-01-22T02:44:37.827Z,0
2019-01-22T02:45:29.803Z,0
2019-01-22T02:46:21.929Z,0
2019-01-22T02:47:14.360Z,0
2019-01-22T02:48:06.892Z,0
2019-01-22T02:48:58.969Z,0
2019-01-22T02:49:51.400Z,0
2019-01-22T02:50:43.239Z,0
2019-01-22T02:51:35.305Z,0
2019-01-22T02:52:27.612Z,0
2019-01-22T02:53:19.574Z,0
2019-01-22T02:54:11.390Z,0
2019-01-22T02:55:03.754Z,0
2019-01-22T02:55:56.353Z,0
2019-01-22T02:56:48.553Z,0
2019-01-22T02:57:40.736Z,0
2019-01-22T02:58:33.076Z,0
2019-01-22T02:59:25.284Z,0
2019-01-22T03:00:17.806Z,0
2019-01-22T03:01:10.144Z,0
2019-01-22T03:02:02.198Z,0
2019-01-22T03:02:54.301Z,0
2019-01-22T03:03:46.471Z,0
2019-01-22T03:04:38.629Z,0
2019-01-22T03:05:31.520Z,0
2019-01-22T03:06:23.633Z,0
2019-01-22T03:07:15.653Z,0
2019-01-22T03:08:08.197Z,0
2019-01-22T03:09:00.284Z,0
2019-01-22T03:09:52.162Z,0
2019-01-22T03:10:44.207Z,0
2019-01-22T03:11:35.843Z,0
2019-01-22T03:12:28.047Z,0
2019-01-22T03:13:20.231Z,0
2019-01-22T03:14:12.822Z,0
2019-01-22T03:15:05.638Z,0
2019-01-22T03:15:58.000Z,0
2019-01-22T03:16:49.901Z,0
2019-01-22T03:17:42.001Z,0
2019-01-22T03:18:34.232Z,0
2019-01-22T03:19:26.254Z,0
2019-01-22T03:20:19.151Z,0
2019-01-22T03:21:11.152Z,0
2019-01-22T03:21:51.386Z,0
2019-01-22T03:22:31.803Z,0
2019-01-22T03:23:12.268Z,0
2019-01-22T03:23:52.586Z,0
2019-01-22T03:24:33.117Z,0
2019-01-22T03:25:13.391Z,0
2019-01-22T03:25:53.914Z,0
2019-01-22T03:26:34.415Z,0
2019-01-22T03:27:14.845Z,0
2019-01-22T03:27:55.238Z,0
2019-01-22T03:28:35.495Z,0
2019-01-22T03:29:15.923Z,0
2019-01-22T03:29:56.529Z,0
2019-01-22T03:30:36.760Z,0
2019-01-22T03:31:17.281Z,0
2019-01-22T03:31:57.607Z,0
2019-01-22T03:32:37.938Z,0
2019-01-22T03:33:19.703Z,0
2019-01-22T03:33:58.687Z,0
2019-01-22T03:34:39.065Z,0
2019-01-22T03:35:19.446Z,0
2019-01-22T03:35:59.804Z,0
2019-01-22T03:36:40.268Z,0
2019-01-22T03:37:20.659Z,0
2019-01-22T03:38:01.058Z,0
2019-01-22T03:38:41.378Z,0
2019-01-22T03:39:21.829Z,0
2019-01-22T03:40:02.245Z,0
2019-01-22T03:40:42.609Z,0
2019-01-22T03:41:23.014Z,0
2019-01-22T03:42:03.387Z,0
2019-01-22T03:42:43.913Z,0
2019-01-22T03:43:24.277Z,0
2019-01-22T03:44:04.743Z,0
2019-01-22T03:44:45.092Z,0
2019-01-22T03:45:25.581Z,0
2019-01-22T03:46:05.977Z,0
2019-01-22T03:46:46.421Z,0
2019-01-22T03:47:26.698Z,0
2019-01-22T03:48:07.203Z,0
2019-01-22T03:48:47.542Z,0
2019-01-22T03:49:28.009Z,0
2019-01-22T03:50:08.419Z,0
2019-01-22T03:50:48.842Z,0
2019-01-22T03:51:29.128Z,0
2019-01-22T03:52:09.611Z,0
2019-01-22T03:52:49.933Z,0
2019-01-22T03:53:30.263Z,0
2019-01-22T03:54:10.658Z,0
2019-01-22T03:54:51.095Z,0
2019-01-22T03:55:31.502Z,0
2019-01-22T03:56:11.898Z,0
2019-01-22T03:56:52.440Z,0
2019-01-22T03:57:32.681Z,0
2019-01-22T03:58:13.081Z,0
2019-01-22T03:58:53.549Z,0
2019-01-22T03:59:34.027Z,0
2019-01-22T04:00:14.413Z,0
2019-01-22T04:00:54.795Z,0
2019-01-22T04:01:35.203Z,0
2019-01-22T04:02:15.564Z,0
2019-01-22T04:02:55.901Z,0
2019-01-22T04:03:36.387Z,0
2019-01-22T04:04:16.810Z,0
2019-01-22T04:04:57.306Z,0
2019-01-22T04:05:37.651Z,0
2019-01-22T04:06:18.054Z,0
2019-01-22T04:06:58.458Z,0
2019-01-22T04:07:38.901Z,0
2019-01-22T04:08:19.241Z,0
2019-01-22T04:08:59.579Z,0
2019-01-22T04:09:40.044Z,0
2019-01-22T04:10:20.479Z,0
2019-01-22T04:11:00.939Z,0
2019-01-22T04:11:41.352Z,0
2019-01-22T04:12:21.672Z,0
2019-01-22T04:13:02.184Z,0
2019-01-22T04:13:42.682Z,0
2019-01-22T04:14:23.191Z,0
2019-01-22T04:15:03.526Z,0
2019-01-22T04:15:43.922Z,0
2019-01-22T04:16:24.286Z,0
2019-01-22T04:17:04.717Z,0
2019-01-22T04:17:45.178Z,0
2019-01-22T04:18:25.569Z,0
2019-01-22T04:19:06.030Z,0
2019-01-22T04:19:46.354Z,0
2019-01-22T04:20:26.779Z,0
2019-01-22T04:21:07.133Z,0
2019-01-22T04:21:47.685Z,0
2019-01-22T04:22:28.018Z,0
2019-01-22T04:23:08.461Z,0
2019-01-22T04:23:48.918Z,0
2019-01-22T04:24:29.346Z,0
2019-01-22T04:25:10.092Z,0
2019-01-22T04:25:50.522Z,0
2019-01-22T04:26:30.885Z,0
2019-01-22T04:27:11.189Z,0
2019-01-22T04:27:51.658Z,0
2019-01-22T05:07:17.368Z,0
2019-01-22T05:08:09.507Z,0
2019-01-22T05:09:02.284Z,0
2019-01-22T05:09:55.028Z,0
2019-01-22T05:10:47.533Z,0
2019-01-22T05:11:41.259Z,0
2019-01-22T05:12:35.939Z,0
2019-01-22T05:13:28.648Z,0
2019-01-22T05:14:21.285Z,0
2019-01-22T05:15:13.814Z,0
2019-01-22T05:16:06.276Z,0
2019-01-22T05:16:58.614Z,0
2019-01-22T05:17:51.802Z,0
2019-01-22T05:18:45.353Z,0
2019-01-22T05:19:37.665Z,0
2019-01-22T05:20:30.301Z,0
2019-01-22T05:21:23.002Z,0
2019-01-22T05:22:15.494Z,0
2019-01-22T05:23:09.158Z,0
2019-01-22T05:24:01.997Z,0
2019-01-22T05:24:54.289Z,0
2019-01-22T05:25:47.685Z,0
2019-01-22T05:26:39.799Z,0
2019-01-22T05:27:32.401Z,0
2019-01-22T05:28:25.832Z,0
2019-01-22T05:29:18.428Z,0
2019-01-22T05:30:11.730Z,0
2019-01-22T05:31:03.905Z,0
2019-01-22T05:31:58.054Z,0
2019-01-22T05:32:51.063Z,0
2019-01-22T05:33:44.301Z,0
2019-01-22T05:34:36.629Z,0
2019-01-22T05:35:28.611Z,0
2019-01-22T05:36:20.835Z,0
2019-01-22T05:37:13.237Z,0
2019-01-22T05:38:07.275Z,0
2019-01-22T05:38:59.851Z,0
2019-01-22T05:39:52.223Z,0
2019-01-22T05:40:45.759Z,0
2019-01-22T05:41:38.714Z,0
2019-01-22T05:42:31.747Z,0
2019-01-22T05:43:24.729Z,0
2019-01-22T05:44:17.160Z,0
2019-01-22T05:45:11.426Z,0
2019-01-22T05:46:05.542Z,0
2019-01-22T05:47:00.013Z,0
2019-01-22T05:47:52.933Z,0
2019-01-22T05:48:46.862Z,0
2019-01-22T05:49:39.372Z,0
2019-01-22T05:50:31.917Z,0
2019-01-22T05:51:25.437Z,0
2019-01-22T05:52:17.967Z,0
2019-01-22T05:53:11.441Z,0
2019-01-22T05:54:04.464Z,0
2019-01-22T05:54:56.753Z,0
2019-01-22T05:55:49.140Z,0
2019-01-22T05:56:41.811Z,0
2019-01-22T05:57:36.022Z,0
2019-01-22T05:58:28.851Z,0
2019-01-22T05:59:21.339Z,0
2019-01-22T06:00:14.265Z,0
2019-01-22T06:01:08.040Z,0
2019-01-22T06:02:00.252Z,0
2019-01-22T06:02:52.616Z,0
2019-01-22T06:03:44.677Z,0
2019-01-22T06:04:37.981Z,0
2019-01-22T06:05:34.399Z,0
2019-01-22T06:06:27.017Z,0
2019-01-22T06:07:19.304Z,0
2019-01-22T06:08:12.367Z,0
2019-01-22T06:09:05.190Z,0
2019-01-22T06:09:57.126Z,0
2019-01-22T06:10:49.166Z,0
2019-01-22T06:11:42.065Z,0
2019-01-22T06:12:34.251Z,0
2019-01-22T06:13:27.718Z,0
2019-01-22T06:14:25.199Z,0
2019-01-22T06:15:18.204Z,0
2019-01-22T06:16:15.726Z,0
2019-01-22T06:17:23.442Z,0
2019-01-22T06:18:17.385Z,0
2019-01-22T06:19:09.267Z,0
2019-01-22T06:20:01.187Z,0
2019-01-22T06:20:53.324Z,0
2019-01-22T06:21:47.585Z,0
2019-01-22T06:22:41.103Z,0
2019-01-22T06:23:38.108Z,0
2019-01-22T06:24:33.206Z,0
2019-01-22T06:25:25.347Z,0
2019-01-22T06:26:18.769Z,0
2019-01-22T06:27:13.325Z,0
2019-01-22T06:28:04.435Z,0
2019-01-22T06:28:59.155Z,0
2019-01-22T06:29:54.246Z,0
2019-01-22T06:30:47.967Z,0
2019-01-22T06:31:43.129Z,0
2019-01-22T06:34:59.418Z,0
2019-01-22T06:35:53.131Z,0
2019-01-22T06:36:45.572Z,0
2019-01-22T06:37:39.533Z,0
2019-01-22T06:38:32.257Z,0
2019-01-22T06:39:24.499Z,0
2019-01-22T06:40:17.986Z,0
2019-01-22T06:41:11.235Z,0
2019-01-22T06:42:06.603Z,0
2019-01-22T06:43:04.705Z,0
2019-01-22T06:44:03.041Z,0
2019-01-22T06:44:59.341Z,0
2019-01-22T06:46:00.418Z,0
2019-01-22T06:47:07.320Z,0
2019-01-22T06:48:05.010Z,4
2019-01-22T06:49:02.771Z,0
2019-01-22T06:50:00.919Z,0
2019-01-22T06:51:01.665Z,4
2019-01-22T06:52:14.577Z,0
2019-01-22T06:53:08.720Z,4
2019-01-22T06:54:06.272Z,0
2019-01-22T06:55:04.503Z,4
2019-01-22T06:56:05.761Z,4
2019-01-22T06:57:01.896Z,4
2019-01-22T06:57:56.121Z,4
2019-01-22T07:00:51.833Z,4
2019-01-22T07:01:45.290Z,8
2019-01-22T07:02:40.094Z,8
2019-01-22T07:03:34.897Z,8
2019-01-22T07:04:29.939Z,8
2019-01-22T07:05:23.415Z,8
2019-01-22T07:06:16.468Z,12
2019-01-22T07:07:09.167Z,16
2019-01-22T07:08:03.083Z,16
2019-01-22T07:08:56.026Z,16
2019-01-22T07:09:48.590Z,20
2019-01-22T07:10:43.044Z,24
2019-01-22T07:11:36.121Z,24
2019-01-22T07:12:28.466Z,28
2019-01-22T07:13:21.453Z,32
2019-01-22T07:14:15.212Z,36
2019-01-22T07:15:09.240Z,36
2019-01-22T07:16:07.291Z,44
2019-01-22T07:16:59.333Z,44
2019-01-22T07:17:53.922Z,52
2019-01-22T07:20:23.585Z,64
2019-01-22T07:21:15.603Z,68
2019-01-22T07:22:07.769Z,72
2019-01-22T07:23:02.496Z,80
2019-01-22T07:24:01.018Z,84
2019-01-22T07:26:55.341Z,104
2019-01-22T07:30:35.406Z,136
2019-01-22T07:31:28.384Z,148
2019-01-22T07:32:20.753Z,156
2019-01-22T07:33:14.594Z,164
2019-01-22T07:34:07.411Z,176
2019-01-22T07:34:59.702Z,188
2019-01-22T07:35:52.877Z,200
2019-01-22T07:36:45.434Z,212
2019-01-22T07:37:37.997Z,228
2019-01-22T07:38:34.090Z,248
2019-01-22T07:39:28.284Z,264
2019-01-22T07:40:20.307Z,280
2019-01-22T07:41:12.867Z,300
2019-01-22T07:42:05.748Z,316
2019-01-22T07:42:59.560Z,332
2019-01-22T07:43:53.575Z,352
2019-01-22T07:44:51.224Z,364
2019-01-22T07:45:43.243Z,384
2019-01-22T07:46:45.298Z,388
2019-01-22T07:47:37.774Z,376
2019-01-22T07:48:31.531Z,372
2019-01-22T07:49:25.334Z,384
2019-01-22T07:50:20.937Z,396
2019-01-22T07:51:13.426Z,400
2019-01-22T07:52:06.143Z,412
2019-01-22T07:53:01.222Z,436
2019-01-22T07:53:57.803Z,456
2019-01-22T07:54:57.546Z,480
2019-01-22T07:55:52.440Z,504
2019-01-22T07:56:45.679Z,536
2019-01-22T07:57:42.296Z,568
2019-01-22T07:58:40.870Z,584
2019-01-22T07:59:39.478Z,580
2019-01-22T08:00:35.890Z,592
2019-01-22T08:01:15.931Z,596
2019-01-22T08:01:57.542Z,604
2019-01-22T08:02:38.064Z,628
2019-01-22T08:03:18.896Z,648
2019-01-22T08:03:59.457Z,660
2019-01-22T08:04:40.011Z,668
2019-01-22T08:05:22.359Z,676
2019-01-22T08:06:02.889Z,680
2019-01-22T08:06:43.471Z,692
2019-01-22T08:07:23.907Z,696
2019-01-22T08:08:04.396Z,708
2019-01-22T08:08:45.767Z,716
2019-01-22T08:09:26.138Z,732
2019-01-22T08:10:07.819Z,736
2019-01-22T08:10:48.850Z,740
2019-01-22T08:11:29.655Z,740
2019-01-22T08:12:09.744Z,744
2019-01-22T08:12:50.498Z,760
2019-01-22T08:13:31.273Z,776
2019-01-22T08:14:12.027Z,796
2019-01-22T08:14:52.258Z,824
2019-01-22T08:15:33.283Z,852
2019-01-22T08:18:13.289Z,948
2019-01-22T08:21:08.378Z,1028
2019-01-22T08:22:08.244Z,1044
2019-01-22T08:23:09.337Z,1064
2019-01-22T08:24:12.607Z,1092
2019-01-22T08:25:07.918Z,1108
2019-01-22T08:26:01.413Z,1120
2019-01-22T08:26:58.609Z,1128
2019-01-22T08:27:52.287Z,1136
2019-01-22T08:28:54.862Z,1120
2019-01-22T08:29:47.770Z,1108
2019-01-22T08:30:43.765Z,1084
2019-01-22T08:31:37.760Z,1056
2019-01-22T08:32:34.757Z,1024
2019-01-22T08:33:29.745Z,996
2019-01-22T08:34:25.724Z,976
2019-01-22T08:35:19.541Z,972
2019-01-22T08:36:14.253Z,984
2019-01-22T08:37:11.979Z,1000
2019-01-22T08:38:10.117Z,1020
2019-01-22T08:40:53.931Z,1072
2019-01-22T08:43:05.207Z,1080
2019-01-22T08:44:13.395Z,1080
2019-01-22T08:47:53.099Z,1080
2019-01-22T08:48:34.219Z,1092
2019-01-22T08:49:18.952Z,1108
2019-01-22T08:49:59.276Z,1108
2019-01-22T08:50:40.145Z,1112
2019-01-22T08:54:28.852Z,1064
2019-01-22T08:55:19.131Z,1032
2019-01-22T08:56:01.628Z,1032
2019-01-22T08:56:41.339Z,1032
2019-01-22T08:57:23.637Z,1040
2019-01-22T08:58:12.756Z,1052
2019-01-22T08:58:56.749Z,1088
2019-01-22T08:59:37.089Z,1112
2019-01-22T09:00:21.780Z,1128
2019-01-22T09:01:03.984Z,1136
2019-01-22T09:01:45.513Z,1132
2019-01-22T09:02:26.080Z,1132
2019-01-22T09:03:08.081Z,1120
2019-01-22T09:03:51.324Z,1112
2019-01-22T09:04:35.651Z,1100
2019-01-22T09:05:17.535Z,1080
2019-01-22T09:06:01.829Z,1056
2019-01-22T09:06:43.361Z,1060
2019-01-22T09:07:23.942Z,1060
2019-01-22T09:08:09.712Z,1064
2019-01-22T09:08:49.736Z,1080
2019-01-22T09:09:32.129Z,1092
2019-01-22T09:10:12.311Z,1100
2019-01-22T09:10:56.384Z,1108
2019-01-22T09:11:37.954Z,1116
2019-01-22T09:14:34.480Z,1172
2019-01-22T09:15:40.017Z,1228
2019-01-22T09:16:37.933Z,1272
2019-01-22T09:17:36.864Z,1320
2019-01-22T09:18:32.052Z,1348
2019-01-22T09:19:26.856Z,1380
2019-01-22T09:20:20.749Z,1380
2019-01-22T09:21:14.952Z,1380
2019-01-22T09:22:08.956Z,1368
2019-01-22T09:23:08.662Z,1344
2019-01-22T09:24:07.349Z,1312
2019-01-22T09:24:59.763Z,1284
2019-01-22T09:25:54.147Z,1260
2019-01-22T09:26:50.058Z,1240
2019-01-22T09:27:44.459Z,1204
2019-01-22T09:28:46.690Z,1192
2019-01-22T09:29:47.965Z,1192
2019-01-22T09:30:49.464Z,1188
2019-01-22T09:31:49.314Z,1204
2019-01-22T09:32:55.321Z,1224
2019-01-22T09:34:01.762Z,1244
2019-01-22T09:35:01.048Z,1244
2019-01-22T09:36:03.285Z,1252
2019-01-22T09:37:08.441Z,1256
2019-01-22T09:38:14.957Z,1260
2019-01-22T09:39:33.759Z,1284
2019-01-22T09:40:41.849Z,1300
2019-01-22T09:41:45.370Z,1320
2019-01-22T09:42:47.739Z,1344
2019-01-22T09:45:39.326Z,1312
2019-01-22T09:46:41.090Z,1308
2019-01-22T09:47:41.985Z,1336
2019-01-22T09:48:41.052Z,1376
2019-01-22T09:49:40.820Z,1412
2019-01-22T09:50:37.529Z,1448
2019-01-22T09:51:35.816Z,1448
2019-01-22T09:52:35.187Z,1412
2019-01-22T09:53:33.441Z,1416
2019-01-22T09:54:35.110Z,1460
2019-01-22T09:55:41.602Z,1468
2019-01-22T09:56:37.674Z,1456
2019-01-22T09:57:53.652Z,1460
2019-01-22T10:02:39.984Z,1324
2019-01-22T10:03:34.477Z,1320
2019-01-22T10:04:20.244Z,1312
2019-01-22T10:05:05.701Z,1320
2019-01-22T10:05:49.950Z,1320
2019-01-22T10:06:33.313Z,1324
2019-01-22T10:07:17.687Z,1324
2019-01-22T10:12:37.678Z,1344
2019-01-22T10:13:18.250Z,1348
2019-01-22T10:13:59.597Z,1348
2019-01-22T10:14:49.299Z,1356
2019-01-22T10:17:41.273Z,1440
2019-01-22T10:19:56.094Z,1484
2019-01-22T10:20:57.666Z,1476
2019-01-22T10:22:00.144Z,1468
2019-01-22T10:24:24.319Z,1384
2019-01-22T10:25:19.199Z,1392
2019-01-22T10:26:00.101Z,1404
2019-01-22T10:26:40.590Z,1412
2019-01-22T10:27:38.263Z,1404
2019-01-22T10:28:21.245Z,1416
2019-01-22T10:29:16.979Z,1448
2019-01-22T11:17:59.561Z,1592
2019-01-22T11:19:05.577Z,1580
2019-01-22T11:20:01.485Z,1556
2019-01-22T11:20:57.316Z,1584
2019-01-22T11:23:37.689Z,1620
2019-01-22T11:24:18.140Z,1608
2019-01-22T11:24:59.641Z,1604
2019-01-22T11:25:43.582Z,1592
2019-01-22T11:26:22.518Z,1588
2019-01-22T11:27:02.923Z,1576
2019-01-22T11:27:44.237Z,1580
2019-01-22T11:28:27.231Z,1592
2019-01-22T11:30:33.527Z,1428
2019-01-22T11:31:15.121Z,1440
2019-01-22T11:31:56.985Z,1468
2019-01-22T11:32:37.700Z,1480
2019-01-22T11:33:18.248Z,1464
2019-01-22T11:33:59.182Z,1448
2019-01-22T11:34:39.634Z,1428
2019-01-22T11:35:21.247Z,1424
2019-01-22T11:38:28.215Z,1468
2019-01-22T11:43:41.461Z,1464
2019-01-22T11:44:30.192Z,1456
2019-01-22T11:45:12.111Z,1468
2019-01-22T11:46:00.709Z,1472
2019-01-22T11:46:44.694Z,1464
2019-01-22T11:47:26.807Z,1456
2019-01-22T11:48:10.802Z,1456
2019-01-22T11:48:54.502Z,1440
2019-01-22T11:49:36.811Z,1448
2019-01-22T11:50:29.620Z,1448
2019-01-22T11:51:10.709Z,1440
2019-01-22T11:51:54.969Z,1448
2019-01-22T11:52:42.160Z,1456
2019-01-22T11:53:25.986Z,1444
2019-01-22T11:54:08.558Z,1448
2019-01-22T11:54:49.075Z,1436
2019-01-22T11:55:35.355Z,1432
2019-01-22T11:56:17.341Z,1432
2019-01-22T11:56:57.807Z,1428
2019-01-22T11:57:39.145Z,1400
2019-01-22T11:58:20.586Z,1352
2019-01-22T11:59:02.405Z,1336
2019-01-22T11:59:46.133Z,1324
2019-01-22T12:00:27.590Z,1332
2019-01-22T12:01:11.540Z,1336
2019-01-22T12:04:01.351Z,1360
2019-01-22T12:04:42.477Z,1368
2019-01-22T12:05:25.337Z,1352
2019-01-22T12:06:08.972Z,1352
2019-01-22T12:06:51.190Z,1340
2019-01-22T12:07:33.040Z,1336
2019-01-22T12:11:24.394Z,1312
2019-01-22T12:12:08.988Z,1292
2019-01-22T12:12:51.330Z,1288
2019-01-22T12:13:35.221Z,1288
2019-01-22T12:14:18.033Z,1284
2019-01-22T12:15:08.973Z,1260
2019-01-22T12:15:51.351Z,1248
2019-01-22T12:16:34.456Z,1240
2019-01-22T12:17:17.855Z,1228
2019-01-22T12:18:02.771Z,1224
2019-01-22T12:18:58.793Z,1188
2019-01-22T12:19:52.116Z,1172
2019-01-22T12:20:38.414Z,1152
2019-01-22T12:21:20.551Z,1152
2019-01-22T12:22:03.059Z,1132
2019-01-22T12:24:51.134Z,1116
2019-01-22T12:26:01.104Z,1120
2019-01-22T12:33:12.721Z,1080
2019-01-22T12:34:08.783Z,1088
2019-01-22T12:35:22.493Z,1100
2019-01-22T12:45:17.125Z,1192
2019-01-22T12:48:28.507Z,1168
2019-01-22T12:51:03.869Z,1136
2019-01-22T12:52:01.542Z,1140
2019-01-22T12:53:22.155Z,1132
2019-01-22T12:56:04.219Z,1116
2019-01-22T12:57:01.063Z,1108
2019-01-22T12:57:58.031Z,1116
2019-01-22T13:00:38.483Z,1124
2019-01-22T13:01:19.244Z,1128
2019-01-22T13:02:00.116Z,1120
2019-01-22T13:02:39.979Z,1096
2019-01-22T13:03:23.021Z,1080
2019-01-22T13:04:03.378Z,1072
2019-01-22T13:04:44.491Z,1076
2019-01-22T13:05:24.924Z,1076
2019-01-22T13:06:05.551Z,1076
2019-01-22T13:06:46.832Z,1088
2019-01-22T13:07:27.301Z,1084
2019-01-22T13:08:07.614Z,1076
2019-01-22T13:08:50.414Z,1076
2019-01-22T13:09:31.597Z,1068
2019-01-22T13:10:12.080Z,1064
2019-01-22T13:10:53.748Z,1064
2019-01-22T13:11:34.054Z,1056
2019-01-22T13:14:35.291Z,1044
2019-01-22T13:15:36.625Z,1044
2019-01-22T13:16:42.752Z,1040
2019-01-22T13:17:39.572Z,1044
2019-01-22T13:18:34.933Z,1052
2019-01-22T13:19:28.228Z,1040
2019-01-22T13:20:20.991Z,1036
2019-01-22T13:22:37.910Z,1020
2019-01-22T13:23:20.496Z,1012
2019-01-22T13:24:00.488Z,1008
2019-01-22T13:24:42.609Z,1000
2019-01-22T13:25:23.352Z,996
2019-01-22T13:26:03.648Z,988
2019-01-22T13:26:44.667Z,980
2019-01-22T13:27:27.021Z,976
2019-01-22T13:28:07.356Z,968
2019-01-22T13:28:47.745Z,956
2019-01-22T13:29:28.915Z,952
2019-01-22T13:30:10.177Z,940
2019-01-22T13:30:50.777Z,932
2019-01-22T13:31:31.360Z,924
2019-01-22T13:32:11.864Z,916
2019-01-22T13:32:52.496Z,908
2019-01-22T13:33:32.902Z,900
2019-01-22T13:34:13.881Z,900
2019-01-22T13:34:54.931Z,892
2019-01-22T13:35:35.010Z,896
2019-01-22T13:36:15.685Z,896
2019-01-22T13:36:58.026Z,888
2019-01-22T13:37:37.817Z,888
2019-01-22T13:38:18.590Z,884
2019-01-22T13:39:00.210Z,880
2019-01-22T13:39:41.517Z,880
2019-01-22T13:40:22.019Z,876
2019-01-22T13:41:19.787Z,864
2019-01-22T13:42:00.992Z,860
2019-01-22T13:42:48.814Z,840
2019-01-22T13:43:29.470Z,824
2019-01-22T13:44:09.988Z,820
2019-01-22T13:44:50.628Z,808
2019-01-22T13:45:32.082Z,800
2019-01-22T13:46:13.911Z,796
2019-01-22T13:46:54.227Z,792
2019-01-22T13:47:35.548Z,784
2019-01-22T13:48:16.795Z,780
2019-01-22T13:48:57.085Z,772
2019-01-22T13:49:37.515Z,768
2019-01-22T13:50:19.869Z,768
2019-01-22T13:51:02.218Z,760
2019-01-22T13:51:42.634Z,756
2019-01-22T13:52:23.890Z,756
2019-01-22T13:53:04.305Z,748
2019-01-22T13:53:45.710Z,744
2019-01-22T13:54:26.480Z,740
2019-01-22T13:55:07.109Z,736
2019-01-22T13:55:47.552Z,736
2019-01-22T13:56:28.061Z,728
2019-01-22T13:57:12.723Z,724
2019-01-22T13:57:53.277Z,724
2019-01-22T13:58:42.389Z,728
2019-01-22T13:59:26.270Z,728
2019-01-22T14:00:06.966Z,720
2019-01-22T14:00:47.278Z,720
2019-01-22T14:01:29.279Z,720
2019-01-22T14:04:20.157Z,664
2019-01-22T14:05:25.805Z,612
2019-01-22T14:06:21.586Z,568
2019-01-22T14:10:51.161Z,444
2019-01-22T14:11:49.864Z,432
2019-01-22T14:12:48.239Z,416
2019-01-22T14:13:50.636Z,420
2019-01-22T14:14:42.207Z,416
2019-01-22T14:15:44.766Z,408
2019-01-22T14:19:30.391Z,432
2019-01-22T14:22:07.202Z,432
2019-01-22T14:23:07.251Z,432
2019-01-22T14:24:08.123Z,416
2019-01-22T14:25:11.572Z,392
2019-01-22T14:26:13.471Z,340
2019-01-22T14:27:10.628Z,288
2019-01-22T14:28:12.885Z,268
2019-01-22T14:32:10.547Z,228
2019-01-22T14:33:14.293Z,228
2019-01-22T14:36:01.251Z,220
2019-01-22T14:37:08.371Z,208
2019-01-22T14:38:18.412Z,184
2019-01-22T14:39:26.465Z,172
2019-01-22T14:40:26.233Z,156
2019-01-22T14:41:24.282Z,144
2019-01-22T14:42:37.462Z,136
2019-01-22T14:47:22.001Z,136
2019-01-22T14:48:49.149Z,144
2019-01-22T14:49:59.633Z,140
2019-01-22T14:51:22.565Z,140
2019-01-22T14:52:21.494Z,136
2019-01-22T14:55:33.440Z,136
2019-01-22T14:56:36.282Z,132
2019-01-22T14:57:36.905Z,128
2019-01-22T14:58:34.492Z,124
2019-01-22T15:01:38.067Z,116
2019-01-22T15:05:41.237Z,96
2019-01-22T15:06:48.953Z,96
2019-01-22T15:07:50.882Z,100
2019-01-22T15:11:04.259Z,88
2019-01-22T15:12:06.771Z,88
2019-01-22T15:13:03.468Z,88
2019-01-22T15:14:07.539Z,92
2019-01-22T15:15:09.904Z,84
2019-01-22T15:16:11.495Z,80
2019-01-22T15:17:06.843Z,76